sensor_id;sensor_type;location;lat;lon;timestamp;P1;durP1;ratioP1;P2;durP2;ratioP2
11039;SDS011;5573;49.592;8.662;2022-07-03T00:00:27;74.18;;;70.18;;
11039;SDS011;5573;49.592;8.662;2022-07-03T00:02:55;74.32;;;70.30;;
11039;SDS011;5573;49.592;8.662;2022-07-03T00:05:23;74.47;;;70.57;;
11039;SDS011;5573;49.592;8.662;2022-07-03T00:07:53;77.15;;;72.95;;
11039;SDS011;5573;49.592;8.662;2022-07-03T00:10:20;72.40;;;68.53;;
11039;SDS011;5573;49.592;8.662;2022-07-03T00:12:49;73.13;;;69.25;;
11039;SDS011;5573;49.592;8.662;2022-07-03T00:15:17;70.28;;;66.55;;
11039;SDS011;5573;49.592;8.662;2022-07-03T00:17:45;72.70;;;68.88;;
11039;SDS011;5573;49.592;8.662;2022-07-03T00:20:13;69.70;;;66.03;;
11039;SDS011;5573;49.592;8.662;2022-07-03T00:22:42;68.63;;;65.03;;
11039;SDS011;5573;49.592;8.662;2022-07-03T00:25:12;69.53;;;65.88;;
11039;SDS011;5573;49.592;8.662;2022-07-03T00:27:40;74.35;;;70.43;;
11039;SDS011;5573;49.592;8.662;2022-07-03T00:30:11;76.00;;;72.03;;
11039;SDS011;5573;49.592;8.662;2022-07-03T00:32:39;70.70;;;67.00;;
11039;SDS011;5573;49.592;8.662;2022-07-03T00:35:09;66.35;;;62.85;;
11039;SDS011;5573;49.592;8.662;2022-07-03T00:37:43;62.72;;;59.42;;
11039;SDS011;5573;49.592;8.662;2022-07-03T00:40:12;69.53;;;65.88;;
11039;SDS011;5573;49.592;8.662;2022-07-03T00:42:40;75.43;;;71.43;;
11039;SDS011;5573;49.592;8.662;2022-07-03T00:45:10;74.55;;;70.60;;
11039;SDS011;5573;49.592;8.662;2022-07-03T00:47:41;77.38;;;73.32;;
11039;SDS011;5573;49.592;8.662;2022-07-03T00:50:09;85.03;;;80.53;;
11039;SDS011;5573;49.592;8.662;2022-07-03T00:52:38;84.55;;;80.15;;
11039;SDS011;5573;49.592;8.662;2022-07-03T00:55:06;82.20;;;77.93;;
11039;SDS011;5573;49.592;8.662;2022-07-03T00:57:42;87.90;;;83.28;;
11039;SDS011;5573;49.592;8.662;2022-07-03T01:00:13;79.15;;;74.93;;
11039;SDS011;5573;49.592;8.662;2022-07-03T01:02:44;85.18;;;80.65;;
11039;SDS011;5573;49.592;8.662;2022-07-03T01:05:19;77.13;;;73.00;;
11039;SDS011;5573;49.592;8.662;2022-07-03T01:07:57;80.68;;;76.43;;
11039;SDS011;5573;49.592;8.662;2022-07-03T01:10:36;82.47;;;78.10;;
11039;SDS011;5573;49.592;8.662;2022-07-03T01:13:13;80.60;;;76.40;;
11039;SDS011;5573;49.592;8.662;2022-07-03T01:15:49;79.28;;;75.13;;
11039;SDS011;5573;49.592;8.662;2022-07-03T01:18:27;90.95;;;86.18;;
11039;SDS011;5573;49.592;8.662;2022-07-03T01:21:05;87.50;;;82.95;;
11039;SDS011;5573;49.592;8.662;2022-07-03T01:23:46;83.82;;;79.45;;
11039;SDS011;5573;49.592;8.662;2022-07-03T01:26:32;83.38;;;79.00;;
11039;SDS011;5573;49.592;8.662;2022-07-03T01:29:06;96.97;;;91.85;;
11039;SDS011;5573;49.592;8.662;2022-07-03T01:31:35;98.97;;;93.80;;
11039;SDS011;5573;49.592;8.662;2022-07-03T01:34:06;98.20;;;93.05;;
11039;SDS011;5573;49.592;8.662;2022-07-03T01:36:40;111.82;;;105.78;;
11039;SDS011;5573;49.592;8.662;2022-07-03T01:39:10;113.93;;;107.90;;
11039;SDS011;5573;49.592;8.662;2022-07-03T01:41:45;106.55;;;100.85;;
11039;SDS011;5573;49.592;8.662;2022-07-03T01:44:15;113.10;;;107.05;;
11039;SDS011;5573;49.592;8.662;2022-07-03T01:46:43;119.70;;;113.25;;
11039;SDS011;5573;49.592;8.662;2022-07-03T01:49:13;118.05;;;111.70;;
11039;SDS011;5573;49.592;8.662;2022-07-03T01:51:42;120.53;;;114.05;;
11039;SDS011;5573;49.592;8.662;2022-07-03T01:54:11;117.55;;;111.20;;
11039;SDS011;5573;49.592;8.662;2022-07-03T01:56:39;123.25;;;116.63;;
11039;SDS011;5573;49.592;8.662;2022-07-03T01:59:09;116.38;;;110.15;;
11039;SDS011;5573;49.592;8.662;2022-07-03T02:01:39;123.75;;;116.97;;
11039;SDS011;5573;49.592;8.662;2022-07-03T02:04:21;120.97;;;114.50;;
11039;SDS011;5573;49.592;8.662;2022-07-03T02:06:54;126.63;;;119.88;;
11039;SDS011;5573;49.592;8.662;2022-07-03T02:09:33;124.03;;;117.25;;
11039;SDS011;5573;49.592;8.662;2022-07-03T02:12:09;124.85;;;118.15;;
11039;SDS011;5573;49.592;8.662;2022-07-03T02:14:43;129.10;;;122.07;;
11039;SDS011;5573;49.592;8.662;2022-07-03T02:17:20;131.55;;;124.32;;
11039;SDS011;5573;49.592;8.662;2022-07-03T02:19:51;137.77;;;130.35;;
11039;SDS011;5573;49.592;8.662;2022-07-03T02:22:25;143.90;;;136.02;;
11039;SDS011;5573;49.592;8.662;2022-07-03T02:24:56;151.52;;;143.35;;
11039;SDS011;5573;49.592;8.662;2022-07-03T02:27:32;135.90;;;128.65;;
11039;SDS011;5573;49.592;8.662;2022-07-03T02:30:10;133.07;;;125.93;;
11039;SDS011;5573;49.592;8.662;2022-07-03T02:32:40;139.95;;;132.40;;
11039;SDS011;5573;49.592;8.662;2022-07-03T02:35:12;143.77;;;136.13;;
11039;SDS011;5573;49.592;8.662;2022-07-03T02:37:52;130.45;;;123.45;;
11039;SDS011;5573;49.592;8.662;2022-07-03T02:40:26;134.65;;;127.45;;
11039;SDS011;5573;49.592;8.662;2022-07-03T02:42:58;139.57;;;132.13;;
11039;SDS011;5573;49.592;8.662;2022-07-03T02:45:40;143.38;;;135.70;;
11039;SDS011;5573;49.592;8.662;2022-07-03T02:48:12;157.88;;;149.27;;
11039;SDS011;5573;49.592;8.662;2022-07-03T02:50:47;160.85;;;151.85;;
11039;SDS011;5573;49.592;8.662;2022-07-03T02:53:22;169.63;;;160.20;;
11039;SDS011;5573;49.592;8.662;2022-07-03T02:55:58;173.18;;;163.60;;
11039;SDS011;5573;49.592;8.662;2022-07-03T02:58:49;175.18;;;165.55;;
11039;SDS011;5573;49.592;8.662;2022-07-03T03:01:33;184.95;;;174.95;;
11039;SDS011;5573;49.592;8.662;2022-07-03T03:04:09;197.98;;;187.27;;
11039;SDS011;5573;49.592;8.662;2022-07-03T03:06:42;199.48;;;188.52;;
11039;SDS011;5573;49.592;8.662;2022-07-03T03:09:19;194.23;;;183.60;;
11039;SDS011;5573;49.592;8.662;2022-07-03T03:11:48;201.63;;;190.52;;
11039;SDS011;5573;49.592;8.662;2022-07-03T03:14:18;202.05;;;190.80;;
11039;SDS011;5573;49.592;8.662;2022-07-03T03:16:50;215.75;;;203.85;;
11039;SDS011;5573;49.592;8.662;2022-07-03T03:19:20;220.48;;;208.35;;
11039;SDS011;5573;49.592;8.662;2022-07-03T03:21:56;215.00;;;202.95;;
11039;SDS011;5573;49.592;8.662;2022-07-03T03:24:30;205.95;;;194.52;;
11039;SDS011;5573;49.592;8.662;2022-07-03T03:26:59;205.05;;;193.55;;
11039;SDS011;5573;49.592;8.662;2022-07-03T03:29:27;205.10;;;193.45;;
11039;SDS011;5573;49.592;8.662;2022-07-03T03:31:57;217.07;;;204.57;;
11039;SDS011;5573;49.592;8.662;2022-07-03T03:34:29;213.30;;;200.93;;
11039;SDS011;5573;49.592;8.662;2022-07-03T03:36:58;203.32;;;191.38;;
11039;SDS011;5573;49.592;8.662;2022-07-03T03:39:26;206.73;;;194.57;;
11039;SDS011;5573;49.592;8.662;2022-07-03T03:41:55;205.65;;;193.00;;
11039;SDS011;5573;49.592;8.662;2022-07-03T03:44:23;218.75;;;205.63;;
11039;SDS011;5573;49.592;8.662;2022-07-03T03:46:51;208.10;;;195.25;;
11039;SDS011;5573;49.592;8.662;2022-07-03T03:49:21;203.30;;;191.02;;
11039;SDS011;5573;49.592;8.662;2022-07-03T03:51:49;198.00;;;186.07;;
11039;SDS011;5573;49.592;8.662;2022-07-03T03:54:17;201.27;;;189.30;;
11039;SDS011;5573;49.592;8.662;2022-07-03T03:56:45;204.75;;;192.48;;
11039;SDS011;5573;49.592;8.662;2022-07-03T03:59:13;212.55;;;199.93;;
11039;SDS011;5573;49.592;8.662;2022-07-03T04:01:40;214.10;;;201.30;;
11039;SDS011;5573;49.592;8.662;2022-07-03T04:04:08;198.95;;;186.93;;
11039;SDS011;5573;49.592;8.662;2022-07-03T04:06:39;198.10;;;186.13;;
11039;SDS011;5573;49.592;8.662;2022-07-03T04:09:07;213.73;;;200.77;;
11039;SDS011;5573;49.592;8.662;2022-07-03T04:11:35;198.77;;;187.05;;
11039;SDS011;5573;49.592;8.662;2022-07-03T04:14:03;198.85;;;187.10;;
11039;SDS011;5573;49.592;8.662;2022-07-03T04:16:30;201.35;;;189.48;;
11039;SDS011;5573;49.592;8.662;2022-07-03T04:19:00;207.65;;;195.32;;
11039;SDS011;5573;49.592;8.662;2022-07-03T04:21:28;204.38;;;192.32;;
11039;SDS011;5573;49.592;8.662;2022-07-03T04:23:57;209.73;;;197.52;;
11039;SDS011;5573;49.592;8.662;2022-07-03T04:26:25;217.70;;;204.73;;
11039;SDS011;5573;49.592;8.662;2022-07-03T04:28:53;203.02;;;191.07;;
11039;SDS011;5573;49.592;8.662;2022-07-03T04:31:21;197.90;;;186.57;;
11039;SDS011;5573;49.592;8.662;2022-07-03T04:33:49;209.88;;;197.98;;
11039;SDS011;5573;49.592;8.662;2022-07-03T04:36:17;200.38;;;188.93;;
11039;SDS011;5573;49.592;8.662;2022-07-03T04:38:46;219.80;;;207.25;;
11039;SDS011;5573;49.592;8.662;2022-07-03T04:41:15;199.45;;;187.88;;
11039;SDS011;5573;49.592;8.662;2022-07-03T04:43:43;213.45;;;200.82;;
11039;SDS011;5573;49.592;8.662;2022-07-03T04:46:10;230.30;;;217.13;;
11039;SDS011;5573;49.592;8.662;2022-07-03T04:48:38;220.35;;;207.30;;
11039;SDS011;5573;49.592;8.662;2022-07-03T04:51:06;219.15;;;206.50;;
11039;SDS011;5573;49.592;8.662;2022-07-03T04:53:34;209.20;;;197.20;;
11039;SDS011;5573;49.592;8.662;2022-07-03T04:56:02;224.77;;;211.82;;
11039;SDS011;5573;49.592;8.662;2022-07-03T04:58:31;222.07;;;209.35;;
11039;SDS011;5573;49.592;8.662;2022-07-03T05:00:59;223.43;;;210.55;;
11039;SDS011;5573;49.592;8.662;2022-07-03T05:03:27;234.43;;;221.18;;
11039;SDS011;5573;49.592;8.662;2022-07-03T05:05:54;235.38;;;222.20;;
11039;SDS011;5573;49.592;8.662;2022-07-03T05:08:22;230.13;;;217.30;;
11039;SDS011;5573;49.592;8.662;2022-07-03T05:10:50;226.82;;;214.15;;
11039;SDS011;5573;49.592;8.662;2022-07-03T05:13:18;237.55;;;224.48;;
11039;SDS011;5573;49.592;8.662;2022-07-03T05:15:47;234.13;;;221.05;;
11039;SDS011;5573;49.592;8.662;2022-07-03T05:18:14;235.23;;;221.82;;
11039;SDS011;5573;49.592;8.662;2022-07-03T05:20:47;254.68;;;240.93;;
11039;SDS011;5573;49.592;8.662;2022-07-03T05:23:15;246.55;;;233.32;;
11039;SDS011;5573;49.592;8.662;2022-07-03T05:25:42;244.40;;;231.30;;
11039;SDS011;5573;49.592;8.662;2022-07-03T05:28:10;245.90;;;232.90;;
11039;SDS011;5573;49.592;8.662;2022-07-03T05:30:38;249.65;;;236.73;;
11039;SDS011;5573;49.592;8.662;2022-07-03T05:33:07;246.85;;;233.82;;
11039;SDS011;5573;49.592;8.662;2022-07-03T05:35:35;248.18;;;235.35;;
11039;SDS011;5573;49.592;8.662;2022-07-03T05:38:03;260.42;;;247.13;;
11039;SDS011;5573;49.592;8.662;2022-07-03T05:40:31;246.00;;;233.05;;
11039;SDS011;5573;49.592;8.662;2022-07-03T05:42:57;243.00;;;230.15;;
11039;SDS011;5573;49.592;8.662;2022-07-03T05:45:25;228.30;;;216.43;;
11039;SDS011;5573;49.592;8.662;2022-07-03T05:47:53;217.77;;;206.68;;
11039;SDS011;5573;49.592;8.662;2022-07-03T05:50:22;176.38;;;167.27;;
11039;SDS011;5573;49.592;8.662;2022-07-03T05:52:50;157.23;;;149.02;;
11039;SDS011;5573;49.592;8.662;2022-07-03T05:55:18;132.82;;;125.93;;
11039;SDS011;5573;49.592;8.662;2022-07-03T05:57:46;109.78;;;104.13;;
11039;SDS011;5573;49.592;8.662;2022-07-03T06:00:14;81.85;;;77.68;;
11039;SDS011;5573;49.592;8.662;2022-07-03T06:02:41;67.18;;;63.63;;
11039;SDS011;5573;49.592;8.662;2022-07-03T06:05:09;54.65;;;51.75;;
11039;SDS011;5573;49.592;8.662;2022-07-03T06:07:38;50.28;;;47.67;;
11039;SDS011;5573;49.592;8.662;2022-07-03T06:10:06;50.50;;;47.85;;
11039;SDS011;5573;49.592;8.662;2022-07-03T06:12:35;47.88;;;45.38;;
11039;SDS011;5573;49.592;8.662;2022-07-03T06:15:03;46.10;;;43.70;;
11039;SDS011;5573;49.592;8.662;2022-07-03T06:17:33;41.83;;;39.50;;
11039;SDS011;5573;49.592;8.662;2022-07-03T06:20:02;41.78;;;39.60;;
11039;SDS011;5573;49.592;8.662;2022-07-03T06:22:30;31.45;;;29.80;;
11039;SDS011;5573;49.592;8.662;2022-07-03T06:24:59;23.88;;;22.67;;
11039;SDS011;5573;49.592;8.662;2022-07-03T06:27:27;22.98;;;21.80;;
11039;SDS011;5573;49.592;8.662;2022-07-03T06:29:55;21.85;;;20.75;;
11039;SDS011;5573;49.592;8.662;2022-07-03T06:32:23;19.80;;;18.80;;
11039;SDS011;5573;49.592;8.662;2022-07-03T06:34:51;20.95;;;19.90;;
11039;SDS011;5573;49.592;8.662;2022-07-03T06:37:19;24.70;;;23.42;;
11039;SDS011;5573;49.592;8.662;2022-07-03T06:39:48;22.95;;;21.80;;
11039;SDS011;5573;49.592;8.662;2022-07-03T06:42:17;21.67;;;20.58;;
11039;SDS011;5573;49.592;8.662;2022-07-03T06:44:47;20.10;;;19.10;;
11039;SDS011;5573;49.592;8.662;2022-07-03T06:47:18;20.70;;;19.67;;
11039;SDS011;5573;49.592;8.662;2022-07-03T06:49:46;18.55;;;17.55;;
11039;SDS011;5573;49.592;8.662;2022-07-03T06:52:13;20.13;;;19.10;;
11039;SDS011;5573;49.592;8.662;2022-07-03T06:54:41;20.85;;;19.65;;
11039;SDS011;5573;49.592;8.662;2022-07-03T06:57:10;22.13;;;21.02;;
11039;SDS011;5573;49.592;8.662;2022-07-03T06:59:39;22.27;;;21.15;;
11039;SDS011;5573;49.592;8.662;2022-07-03T07:02:08;20.42;;;19.23;;
11039;SDS011;5573;49.592;8.662;2022-07-03T07:04:36;11.38;;;10.77;;
11039;SDS011;5573;49.592;8.662;2022-07-03T07:07:04;9.70;;;9.20;;
11039;SDS011;5573;49.592;8.662;2022-07-03T07:09:31;11.05;;;10.48;;
11039;SDS011;5573;49.592;8.662;2022-07-03T07:11:59;9.75;;;9.25;;
11039;SDS011;5573;49.592;8.662;2022-07-03T07:14:27;9.05;;;8.65;;
11039;SDS011;5573;49.592;8.662;2022-07-03T07:16:56;9.40;;;8.90;;
11039;SDS011;5573;49.592;8.662;2022-07-03T07:19:24;9.32;;;8.82;;
11039;SDS011;5573;49.592;8.662;2022-07-03T07:21:52;6.60;;;6.30;;
11039;SDS011;5573;49.592;8.662;2022-07-03T07:24:20;6.47;;;6.18;;
11039;SDS011;5573;49.592;8.662;2022-07-03T07:26:48;5.65;;;5.35;;
11039;SDS011;5573;49.592;8.662;2022-07-03T07:29:15;5.20;;;4.90;;
11039;SDS011;5573;49.592;8.662;2022-07-03T07:31:43;4.85;;;4.55;;
11039;SDS011;5573;49.592;8.662;2022-07-03T07:34:13;4.60;;;4.40;;
11039;SDS011;5573;49.592;8.662;2022-07-03T07:36:41;4.25;;;4.05;;
11039;SDS011;5573;49.592;8.662;2022-07-03T07:39:08;4.55;;;4.35;;
11039;SDS011;5573;49.592;8.662;2022-07-03T07:41:36;4.80;;;4.60;;
11039;SDS011;5573;49.592;8.662;2022-07-03T07:44:05;4.88;;;4.68;;
11039;SDS011;5573;49.592;8.662;2022-07-03T07:46:33;5.13;;;4.85;;
11039;SDS011;5573;49.592;8.662;2022-07-03T07:49:01;5.22;;;5.00;;
11039;SDS011;5573;49.592;8.662;2022-07-03T07:51:30;5.40;;;5.10;;
11039;SDS011;5573;49.592;8.662;2022-07-03T07:53:58;5.30;;;5.03;;
11039;SDS011;5573;49.592;8.662;2022-07-03T07:56:26;5.72;;;5.43;;
11039;SDS011;5573;49.592;8.662;2022-07-03T07:58:54;5.57;;;5.28;;
11039;SDS011;5573;49.592;8.662;2022-07-03T08:01:21;5.68;;;5.35;;
11039;SDS011;5573;49.592;8.662;2022-07-03T08:04:07;5.20;;;5.00;;
11039;SDS011;5573;49.592;8.662;2022-07-03T08:06:54;5.10;;;4.90;;
11039;SDS011;5573;49.592;8.662;2022-07-03T08:09:22;5.50;;;5.20;;
11039;SDS011;5573;49.592;8.662;2022-07-03T08:11:50;5.75;;;5.45;;
11039;SDS011;5573;49.592;8.662;2022-07-03T08:14:17;6.00;;;5.70;;
11039;SDS011;5573;49.592;8.662;2022-07-03T08:16:45;6.38;;;5.97;;
11039;SDS011;5573;49.592;8.662;2022-07-03T08:19:13;5.43;;;5.13;;
11039;SDS011;5573;49.592;8.662;2022-07-03T08:21:41;5.55;;;5.25;;
11039;SDS011;5573;49.592;8.662;2022-07-03T08:24:10;5.78;;;5.47;;
11039;SDS011;5573;49.592;8.662;2022-07-03T08:26:39;7.25;;;6.90;;
11039;SDS011;5573;49.592;8.662;2022-07-03T08:29:07;8.57;;;8.18;;
11039;SDS011;5573;49.592;8.662;2022-07-03T08:31:35;10.77;;;10.20;;
11039;SDS011;5573;49.592;8.662;2022-07-03T08:34:03;12.60;;;12.00;;
11039;SDS011;5573;49.592;8.662;2022-07-03T08:36:30;15.57;;;14.80;;
11039;SDS011;5573;49.592;8.662;2022-07-03T08:38:58;17.13;;;16.25;;
11039;SDS011;5573;49.592;8.662;2022-07-03T08:41:28;17.55;;;16.63;;
11039;SDS011;5573;49.592;8.662;2022-07-03T08:43:59;18.35;;;17.35;;
11039;SDS011;5573;49.592;8.662;2022-07-03T08:46:27;22.02;;;20.85;;
11039;SDS011;5573;49.592;8.662;2022-07-03T08:48:59;21.08;;;19.98;;
11039;SDS011;5573;49.592;8.662;2022-07-03T08:51:27;19.25;;;18.25;;
11039;SDS011;5573;49.592;8.662;2022-07-03T08:53:55;23.33;;;22.13;;
11039;SDS011;5573;49.592;8.662;2022-07-03T08:56:28;27.55;;;26.15;;
11039;SDS011;5573;49.592;8.662;2022-07-03T08:58:57;20.17;;;19.17;;
11039;SDS011;5573;49.592;8.662;2022-07-03T09:01:26;16.55;;;15.75;;
11039;SDS011;5573;49.592;8.662;2022-07-03T09:03:54;14.55;;;13.65;;
11039;SDS011;5573;49.592;8.662;2022-07-03T09:06:24;14.60;;;13.88;;
11039;SDS011;5573;49.592;8.662;2022-07-03T09:08:52;14.75;;;14.05;;
11039;SDS011;5573;49.592;8.662;2022-07-03T09:11:22;12.40;;;11.80;;
11039;SDS011;5573;49.592;8.662;2022-07-03T09:13:51;11.80;;;11.20;;
11039;SDS011;5573;49.592;8.662;2022-07-03T09:16:20;11.40;;;10.82;;
11039;SDS011;5573;49.592;8.662;2022-07-03T09:18:48;10.45;;;9.85;;
11039;SDS011;5573;49.592;8.662;2022-07-03T09:21:16;11.25;;;10.65;;
11039;SDS011;5573;49.592;8.662;2022-07-03T09:23:44;11.07;;;10.52;;
11039;SDS011;5573;49.592;8.662;2022-07-03T09:26:14;10.35;;;9.85;;
11039;SDS011;5573;49.592;8.662;2022-07-03T09:28:45;9.93;;;9.43;;
11039;SDS011;5573;49.592;8.662;2022-07-03T09:31:17;9.10;;;8.70;;
11039;SDS011;5573;49.592;8.662;2022-07-03T09:33:50;9.15;;;8.65;;
11039;SDS011;5573;49.592;8.662;2022-07-03T09:36:22;9.10;;;8.60;;
11039;SDS011;5573;49.592;8.662;2022-07-03T09:39:10;8.18;;;7.78;;
11039;SDS011;5573;49.592;8.662;2022-07-03T09:41:50;8.43;;;8.02;;
11039;SDS011;5573;49.592;8.662;2022-07-03T09:44:30;7.55;;;7.15;;
11039;SDS011;5573;49.592;8.662;2022-07-03T09:47:11;8.32;;;7.93;;
11039;SDS011;5573;49.592;8.662;2022-07-03T09:49:48;7.50;;;7.13;;
11039;SDS011;5573;49.592;8.662;2022-07-03T09:52:27;7.70;;;7.30;;
11039;SDS011;5573;49.592;8.662;2022-07-03T09:54:58;7.13;;;6.82;;
11039;SDS011;5573;49.592;8.662;2022-07-03T09:57:28;7.95;;;7.55;;
11039;SDS011;5573;49.592;8.662;2022-07-03T10:00:09;7.32;;;6.93;;
11039;SDS011;5573;49.592;8.662;2022-07-03T10:02:56;7.30;;;7.00;;
11039;SDS011;5573;49.592;8.662;2022-07-03T10:05:26;7.93;;;7.53;;
11039;SDS011;5573;49.592;8.662;2022-07-03T10:07:57;7.43;;;7.03;;
11039;SDS011;5573;49.592;8.662;2022-07-03T10:10:27;7.05;;;6.75;;
11039;SDS011;5573;49.592;8.662;2022-07-03T10:12:56;6.38;;;6.07;;
11039;SDS011;5573;49.592;8.662;2022-07-03T10:15:25;6.45;;;6.15;;
11039;SDS011;5573;49.592;8.662;2022-07-03T10:17:57;5.97;;;5.68;;
11039;SDS011;5573;49.592;8.662;2022-07-03T10:20:26;6.00;;;5.70;;
11039;SDS011;5573;49.592;8.662;2022-07-03T10:22:56;5.75;;;5.45;;
11039;SDS011;5573;49.592;8.662;2022-07-03T10:25:24;5.90;;;5.60;;
11039;SDS011;5573;49.592;8.662;2022-07-03T10:27:53;5.90;;;5.60;;
11039;SDS011;5573;49.592;8.662;2022-07-03T10:30:22;6.30;;;6.00;;
11039;SDS011;5573;49.592;8.662;2022-07-03T10:32:51;6.13;;;5.82;;
11039;SDS011;5573;49.592;8.662;2022-07-03T10:35:23;5.90;;;5.60;;
11039;SDS011;5573;49.592;8.662;2022-07-03T10:37:56;5.97;;;5.68;;
11039;SDS011;5573;49.592;8.662;2022-07-03T10:40:37;6.97;;;6.68;;
11039;SDS011;5573;49.592;8.662;2022-07-03T10:43:29;6.72;;;6.43;;
11039;SDS011;5573;49.592;8.662;2022-07-03T10:46:21;6.05;;;5.75;;
11039;SDS011;5573;49.592;8.662;2022-07-03T10:48:58;7.03;;;6.72;;
11039;SDS011;5573;49.592;8.662;2022-07-03T10:51:30;6.40;;;6.10;;
11039;SDS011;5573;49.592;8.662;2022-07-03T10:54:15;6.45;;;6.10;;
11039;SDS011;5573;49.592;8.662;2022-07-03T11:00:04;6.00;;;5.70;;
11039;SDS011;5573;49.592;8.662;2022-07-03T11:02:35;6.82;;;6.53;;
11039;SDS011;5573;49.592;8.662;2022-07-03T11:05:09;6.32;;;6.03;;
11039;SDS011;5573;49.592;8.662;2022-07-03T11:07:42;6.22;;;5.93;;
11039;SDS011;5573;49.592;8.662;2022-07-03T11:10:30;5.78;;;5.47;;
11039;SDS011;5573;49.592;8.662;2022-07-03T11:13:02;6.50;;;6.20;;
11039;SDS011;5573;49.592;8.662;2022-07-03T11:15:32;6.57;;;6.28;;
11039;SDS011;5573;49.592;8.662;2022-07-03T11:18:07;6.55;;;6.25;;
11039;SDS011;5573;49.592;8.662;2022-07-03T11:23:48;6.20;;;5.80;;
11039;SDS011;5573;49.592;8.662;2022-07-03T11:26:26;6.20;;;5.90;;
11039;SDS011;5573;49.592;8.662;2022-07-03T11:28:54;6.13;;;5.82;;
11039;SDS011;5573;49.592;8.662;2022-07-03T11:31:22;6.00;;;5.70;;
11039;SDS011;5573;49.592;8.662;2022-07-03T11:33:56;6.43;;;6.13;;
11039;SDS011;5573;49.592;8.662;2022-07-03T11:36:25;6.18;;;5.88;;
11039;SDS011;5573;49.592;8.662;2022-07-03T11:39:07;6.03;;;5.72;;
11039;SDS011;5573;49.592;8.662;2022-07-03T11:41:43;6.30;;;6.00;;
11039;SDS011;5573;49.592;8.662;2022-07-03T11:44:16;6.03;;;5.72;;
11039;SDS011;5573;49.592;8.662;2022-07-03T11:46:47;6.10;;;5.80;;
11039;SDS011;5573;49.592;8.662;2022-07-03T11:49:18;6.50;;;6.20;;
11039;SDS011;5573;49.592;8.662;2022-07-03T11:51:57;6.47;;;6.18;;
11039;SDS011;5573;49.592;8.662;2022-07-03T11:54:29;7.22;;;6.82;;
11039;SDS011;5573;49.592;8.662;2022-07-03T11:56:58;6.50;;;6.20;;
11039;SDS011;5573;49.592;8.662;2022-07-03T11:59:27;7.38;;;7.00;;
11039;SDS011;5573;49.592;8.662;2022-07-03T12:02:00;7.63;;;7.22;;
11039;SDS011;5573;49.592;8.662;2022-07-03T12:04:30;6.70;;;6.40;;
11039;SDS011;5573;49.592;8.662;2022-07-03T12:07:00;6.80;;;6.50;;
11039;SDS011;5573;49.592;8.662;2022-07-03T12:09:30;6.32;;;6.03;;
11039;SDS011;5573;49.592;8.662;2022-07-03T12:12:00;6.65;;;6.28;;
11039;SDS011;5573;49.592;8.662;2022-07-03T12:14:35;6.00;;;5.70;;
11039;SDS011;5573;49.592;8.662;2022-07-03T12:17:06;6.72;;;6.32;;
11039;SDS011;5573;49.592;8.662;2022-07-03T12:19:36;6.50;;;6.20;;
11039;SDS011;5573;49.592;8.662;2022-07-03T12:22:05;6.65;;;6.35;;
11039;SDS011;5573;49.592;8.662;2022-07-03T12:24:34;7.03;;;6.72;;
11039;SDS011;5573;49.592;8.662;2022-07-03T12:27:04;6.95;;;6.65;;
11039;SDS011;5573;49.592;8.662;2022-07-03T12:29:32;6.65;;;6.35;;
11039;SDS011;5573;49.592;8.662;2022-07-03T12:32:02;6.68;;;6.38;;
11039;SDS011;5573;49.592;8.662;2022-07-03T12:34:36;6.45;;;6.15;;
11039;SDS011;5573;49.592;8.662;2022-07-03T12:37:06;6.70;;;6.40;;
11039;SDS011;5573;49.592;8.662;2022-07-03T12:39:41;6.60;;;6.30;;
11039;SDS011;5573;49.592;8.662;2022-07-03T12:42:16;6.88;;;6.57;;
11039;SDS011;5573;49.592;8.662;2022-07-03T12:44:55;6.88;;;6.57;;
11039;SDS011;5573;49.592;8.662;2022-07-03T12:47:24;6.97;;;6.68;;
11039;SDS011;5573;49.592;8.662;2022-07-03T12:49:56;7.05;;;6.75;;
11039;SDS011;5573;49.592;8.662;2022-07-03T12:52:25;6.78;;;6.47;;
11039;SDS011;5573;49.592;8.662;2022-07-03T12:54:54;6.55;;;6.25;;
11039;SDS011;5573;49.592;8.662;2022-07-03T12:57:23;6.95;;;6.65;;
11039;SDS011;5573;49.592;8.662;2022-07-03T13:00:09;7.05;;;6.75;;
11039;SDS011;5573;49.592;8.662;2022-07-03T13:02:42;7.13;;;6.82;;
11039;SDS011;5573;49.592;8.662;2022-07-03T13:05:14;7.15;;;6.85;;
11039;SDS011;5573;49.592;8.662;2022-07-03T13:07:44;7.65;;;7.25;;
11039;SDS011;5573;49.592;8.662;2022-07-03T13:10:14;7.10;;;6.80;;
11039;SDS011;5573;49.592;8.662;2022-07-03T13:12:46;8.20;;;7.80;;
11039;SDS011;5573;49.592;8.662;2022-07-03T13:15:16;7.60;;;7.20;;
11039;SDS011;5573;49.592;8.662;2022-07-03T13:17:58;7.50;;;7.15;;
11039;SDS011;5573;49.592;8.662;2022-07-03T13:20:27;8.00;;;7.60;;
11039;SDS011;5573;49.592;8.662;2022-07-03T13:22:57;8.45;;;8.02;;
11039;SDS011;5573;49.592;8.662;2022-07-03T13:25:28;7.25;;;6.90;;
11039;SDS011;5573;49.592;8.662;2022-07-03T13:28:03;7.78;;;7.38;;
11039;SDS011;5573;49.592;8.662;2022-07-03T13:30:31;9.45;;;8.85;;
11039;SDS011;5573;49.592;8.662;2022-07-03T13:33:00;7.00;;;6.70;;
11039;SDS011;5573;49.592;8.662;2022-07-03T13:35:28;7.60;;;7.20;;
11039;SDS011;5573;49.592;8.662;2022-07-03T13:37:56;7.47;;;7.07;;
11039;SDS011;5573;49.592;8.662;2022-07-03T13:40:24;8.00;;;7.60;;
11039;SDS011;5573;49.592;8.662;2022-07-03T13:42:53;8.00;;;7.60;;
11039;SDS011;5573;49.592;8.662;2022-07-03T13:45:21;8.60;;;8.10;;
11039;SDS011;5573;49.592;8.662;2022-07-03T13:47:49;7.60;;;7.20;;
11039;SDS011;5573;49.592;8.662;2022-07-03T13:50:17;7.90;;;7.50;;
11039;SDS011;5573;49.592;8.662;2022-07-03T13:52:45;7.85;;;7.45;;
11039;SDS011;5573;49.592;8.662;2022-07-03T13:55:16;7.97;;;7.57;;
11039;SDS011;5573;49.592;8.662;2022-07-03T13:57:44;7.97;;;7.57;;
11039;SDS011;5573;49.592;8.662;2022-07-03T14:00:13;7.68;;;7.28;;
11039;SDS011;5573;49.592;8.662;2022-07-03T14:02:42;7.38;;;7.05;;
11039;SDS011;5573;49.592;8.662;2022-07-03T14:05:10;7.72;;;7.32;;
11039;SDS011;5573;49.592;8.662;2022-07-03T14:07:38;7.95;;;7.55;;
11039;SDS011;5573;49.592;8.662;2022-07-03T14:10:06;8.07;;;7.68;;
11039;SDS011;5573;49.592;8.662;2022-07-03T14:12:35;8.13;;;7.72;;
11039;SDS011;5573;49.592;8.662;2022-07-03T14:15:03;8.35;;;7.95;;
11039;SDS011;5573;49.592;8.662;2022-07-03T14:17:33;8.27;;;7.88;;
11039;SDS011;5573;49.592;8.662;2022-07-03T14:20:00;8.25;;;7.85;;
11039;SDS011;5573;49.592;8.662;2022-07-03T14:22:28;7.95;;;7.55;;
11039;SDS011;5573;49.592;8.662;2022-07-03T14:24:56;7.95;;;7.55;;
11039;SDS011;5573;49.592;8.662;2022-07-03T14:27:24;7.93;;;7.53;;
11039;SDS011;5573;49.592;8.662;2022-07-03T14:30:09;7.70;;;7.30;;
11039;SDS011;5573;49.592;8.662;2022-07-03T14:32:56;7.95;;;7.55;;
11039;SDS011;5573;49.592;8.662;2022-07-03T14:35:24;8.20;;;7.70;;
11039;SDS011;5573;49.592;8.662;2022-07-03T14:37:52;7.68;;;7.28;;
11039;SDS011;5573;49.592;8.662;2022-07-03T14:40:20;8.00;;;7.60;;
11039;SDS011;5573;49.592;8.662;2022-07-03T14:42:48;8.07;;;7.68;;
11039;SDS011;5573;49.592;8.662;2022-07-03T14:45:16;8.38;;;7.97;;
11039;SDS011;5573;49.592;8.662;2022-07-03T14:47:44;8.00;;;7.60;;
11039;SDS011;5573;49.592;8.662;2022-07-03T14:50:13;8.10;;;7.70;;
11039;SDS011;5573;49.592;8.662;2022-07-03T14:52:41;8.05;;;7.65;;
11039;SDS011;5573;49.592;8.662;2022-07-03T14:55:09;8.40;;;7.90;;
11039;SDS011;5573;49.592;8.662;2022-07-03T14:57:41;7.95;;;7.55;;
11039;SDS011;5573;49.592;8.662;2022-07-03T15:00:24;8.60;;;8.20;;
11039;SDS011;5573;49.592;8.662;2022-07-03T15:03:00;8.65;;;8.25;;
11039;SDS011;5573;49.592;8.662;2022-07-03T15:05:34;8.50;;;8.10;;